createdAt,value
2019-04-05T00:00:15.944Z,9.17
2019-04-05T00:02:45.686Z,8.50
2019-04-05T00:05:15.630Z,7.43
2019-04-05T00:07:45.326Z,8.30
2019-04-05T00:10:15.801Z,8.73
2019-04-05T00:12:45.581Z,7.83
2019-04-05T00:15:16.228Z,8.30
2019-04-05T00:17:46.036Z,9.03
2019-04-05T00:20:16.847Z,8.40
2019-04-05T00:22:46.525Z,7.73
2019-04-05T00:25:16.236Z,9.67
2019-04-05T00:27:45.916Z,9.90
2019-04-05T00:30:15.801Z,10.47
2019-04-05T00:32:45.488Z,10.23
2019-04-05T00:35:15.134Z,10.40
2019-04-05T00:37:44.821Z,10.13
2019-04-05T00:40:14.808Z,8.33
2019-04-05T00:42:44.489Z,8.30
2019-04-05T00:45:27.187Z,8.27
2019-04-05T00:47:45.811Z,7.87
2019-04-05T00:50:15.802Z,8.10
2019-04-05T00:52:46.020Z,7.73
2019-04-05T00:55:15.839Z,8.37
2019-04-05T00:57:45.587Z,7.80
2019-04-05T01:00:15.358Z,8.63
2019-04-05T01:02:45.136Z,8.37
2019-04-05T01:05:14.959Z,8.37
2019-04-05T01:07:44.742Z,7.70
2019-04-05T01:10:15.219Z,8.67
2019-04-05T01:12:47.376Z,8.70
2019-04-05T01:15:17.764Z,8.30
2019-04-05T01:17:47.472Z,9.37
2019-04-05T01:20:17.293Z,8.63
2019-04-05T01:22:48.068Z,9.13
2019-04-05T01:25:18.557Z,10.43
2019-04-05T01:27:48.677Z,7.93
2019-04-05T01:30:19.541Z,8.23
2019-04-05T01:32:49.287Z,8.70
2019-04-05T01:35:19.106Z,8.43
2019-04-05T01:37:49.180Z,8.23
2019-04-05T01:40:19.059Z,8.63
2019-04-05T01:42:49.276Z,7.93
2019-04-05T01:45:19.327Z,9.00
2019-04-05T01:47:49.070Z,8.40
2019-04-05T01:50:18.881Z,8.60
2019-04-05T01:52:49.458Z,8.47
2019-04-05T01:55:19.136Z,8.43
2019-04-05T01:57:48.818Z,8.17
2019-04-05T02:00:20.534Z,7.97
2019-04-05T02:02:50.282Z,7.93
2019-04-05T02:05:20.165Z,8.03
2019-04-05T02:07:50.153Z,8.63
2019-04-05T02:10:19.933Z,8.00
2019-04-05T02:12:49.822Z,8.43
2019-04-05T02:15:28.820Z,8.83
2019-04-05T02:17:58.849Z,8.50
2019-04-05T02:20:28.903Z,8.73
2019-04-05T02:22:58.755Z,8.50
2019-04-05T02:25:28.901Z,8.73
2019-04-05T02:27:58.742Z,9.57
2019-04-05T02:30:28.699Z,9.00
2019-04-05T02:32:58.717Z,8.90
2019-04-05T02:35:28.581Z,8.53
2019-04-05T02:37:58.484Z,9.23
2019-04-05T02:40:30.440Z,8.23
2019-04-05T02:43:03.094Z,8.87
2019-04-05T02:45:37.161Z,10.60
2019-04-05T02:48:11.145Z,10.00
2019-04-05T02:50:45.417Z,9.97
2019-04-05T02:53:18.647Z,8.67
2019-04-05T02:55:49.948Z,9.47
2019-04-05T02:58:21.721Z,9.93
2019-04-05T03:00:52.315Z,9.23
2019-04-05T03:03:22.495Z,9.40
2019-04-05T03:05:52.830Z,9.77
2019-04-05T03:08:22.686Z,9.93
2019-04-05T03:11:11.492Z,10.03
2019-04-05T03:13:45.714Z,11.27
2019-04-05T03:16:40.354Z,12.10
2019-04-05T03:19:05.182Z,13.13
2019-04-05T03:21:38.875Z,12.27
2019-04-05T03:24:12.539Z,10.30
2019-04-05T03:26:46.805Z,9.47
2019-04-05T03:29:16.662Z,10.03
2019-04-05T03:31:46.833Z,9.63
2019-04-05T03:34:17.694Z,10.17
2019-04-05T03:36:51.465Z,9.67
2019-04-05T03:39:19.887Z,10.23
2019-04-05T03:41:49.889Z,9.70
2019-04-05T03:44:22.946Z,10.20
2019-04-05T03:46:57.154Z,10.60
2019-04-05T03:49:24.268Z,10.80
2019-04-05T03:51:54.258Z,10.30
2019-04-05T03:54:24.700Z,10.20
2019-04-05T03:56:54.633Z,9.60
2019-04-05T03:59:24.580Z,9.07
2019-04-05T04:01:54.461Z,9.97
2019-04-05T04:04:24.385Z,10.53
2019-04-05T04:06:54.227Z,10.30
2019-04-05T04:09:24.619Z,10.23
2019-04-05T04:11:55.085Z,9.57
2019-04-05T04:14:24.963Z,10.30
2019-04-05T04:17:10.935Z,10.07
2019-04-05T04:19:27.264Z,9.90
2019-04-05T04:22:22.522Z,10.87
2019-04-05T04:24:52.809Z,12.13
2019-04-05T04:27:23.159Z,11.97
2019-04-05T04:29:53.927Z,11.13
2019-04-05T04:32:24.140Z,11.50
2019-04-05T04:34:54.742Z,11.97
2019-04-05T04:37:24.661Z,11.50
2019-04-05T04:39:54.810Z,11.30
2019-04-05T04:42:24.902Z,11.00
2019-04-05T04:44:54.926Z,11.40
2019-04-05T04:47:27.343Z,11.50
2019-04-05T04:49:58.238Z,11.03
2019-04-05T04:52:31.371Z,10.63
2019-04-05T04:55:01.525Z,10.83
2019-04-05T04:57:31.853Z,12.73
2019-04-05T05:00:01.685Z,11.33
2019-04-05T05:02:31.938Z,11.87
2019-04-05T05:05:02.237Z,11.83
2019-04-05T05:07:32.723Z,11.40
2019-04-05T05:10:03.410Z,11.30
2019-04-05T05:12:33.404Z,11.67
2019-04-05T05:15:03.505Z,11.37
2019-04-05T05:17:38.756Z,11.43
2019-04-05T05:20:07.863Z,11.87
2019-04-05T05:22:38.255Z,11.77
2019-04-05T05:25:08.909Z,11.77
2019-04-05T05:27:38.838Z,12.77
2019-04-05T05:30:10.993Z,11.50
2019-04-05T05:32:41.216Z,11.83
2019-04-05T05:35:10.950Z,12.57
2019-04-05T05:37:40.824Z,12.70
2019-04-05T05:40:11.430Z,12.63
2019-04-05T05:42:41.169Z,12.43
2019-04-05T05:45:11.711Z,12.13
2019-04-05T05:47:51.587Z,12.47
2019-04-05T05:50:13.234Z,12.67
2019-04-05T05:52:43.469Z,12.60
2019-04-05T05:55:13.167Z,12.53
2019-04-05T05:57:42.782Z,11.90
2019-04-05T06:00:14.365Z,12.20
2019-04-05T06:02:43.997Z,12.70
2019-04-05T06:05:13.804Z,12.53
2019-04-05T06:07:43.424Z,12.40
2019-04-05T06:10:13.176Z,13.30
2019-04-05T06:12:42.802Z,13.80
2019-04-05T06:15:12.711Z,13.70
2019-04-05T06:17:42.336Z,14.33
2019-04-05T06:20:12.453Z,13.70
2019-04-05T06:22:42.076Z,14.60
2019-04-05T06:25:11.955Z,14.47
2019-04-05T06:27:42.860Z,14.73
2019-04-05T06:30:12.916Z,15.30
2019-04-05T06:32:42.555Z,14.70
2019-04-05T06:35:12.319Z,13.23
2019-04-05T06:37:42.178Z,14.80
2019-04-05T06:40:12.110Z,14.23
2019-04-05T06:42:41.784Z,14.73
2019-04-05T06:45:11.548Z,15.00
2019-04-05T06:47:41.153Z,14.30
2019-04-05T06:50:11.081Z,15.07
2019-04-05T06:52:40.720Z,15.40
2019-04-05T06:55:10.386Z,15.33
2019-04-05T06:57:39.990Z,17.53
2019-04-05T07:00:10.036Z,23.93
2019-04-05T07:02:39.636Z,22.87
2019-04-05T07:05:09.379Z,23.93
2019-04-05T07:07:39.009Z,24.17
2019-04-05T07:10:08.947Z,18.60
2019-04-05T07:12:38.571Z,17.17
2019-04-05T07:15:08.471Z,18.77
2019-04-05T07:17:38.161Z,18.23
2019-04-05T07:20:07.904Z,19.23
2019-04-05T07:22:39.587Z,18.13
2019-04-05T07:25:09.012Z,16.93
2019-04-05T07:27:38.651Z,18.93
2019-04-05T07:30:08.859Z,18.27
2019-04-05T07:32:38.495Z,18.90
2019-04-05T07:35:08.494Z,19.63
2019-04-05T07:37:38.122Z,19.53
2019-04-05T07:40:09.409Z,19.57
2019-04-05T07:42:39.031Z,18.93
2019-04-05T07:45:09.163Z,17.77
2019-04-05T07:47:38.777Z,18.90
2019-04-05T07:50:08.920Z,21.80
2019-04-05T07:52:38.514Z,24.17
2019-04-05T07:55:09.765Z,26.97
2019-04-05T07:57:39.367Z,27.23
2019-04-05T08:00:12.780Z,25.27
2019-04-05T08:02:42.417Z,23.97
2019-04-05T08:05:12.080Z,22.03
2019-04-05T08:07:46.362Z,20.30
2019-04-05T08:10:16.371Z,21.43
2019-04-05T08:12:47.705Z,21.07
2019-04-05T08:15:17.552Z,22.73
2019-04-05T08:17:47.182Z,22.50
2019-04-05T08:20:17.120Z,21.40
2019-04-05T08:22:46.743Z,21.50
2019-04-05T08:25:16.367Z,21.60
2019-04-05T08:27:45.984Z,20.90
2019-04-05T08:30:15.742Z,20.60
2019-04-05T08:32:45.375Z,20.40
2019-04-05T08:35:14.981Z,19.87
2019-04-05T08:37:44.776Z,20.27
2019-04-05T08:40:14.641Z,20.73
2019-04-05T08:42:44.239Z,18.87
2019-04-05T08:45:14.197Z,18.80
2019-04-05T08:47:48.779Z,17.90
2019-04-05T08:50:15.797Z,18.87
2019-04-05T08:52:45.404Z,19.83
2019-04-05T08:55:15.170Z,18.87
2019-04-05T08:57:44.795Z,18.47
2019-04-05T09:00:15.214Z,17.93
2019-04-05T09:02:44.934Z,18.73
2019-04-05T09:05:14.654Z,19.07
2019-04-05T09:07:44.280Z,19.43
2019-04-05T09:10:14.051Z,19.07
2019-04-05T09:12:43.644Z,20.90
2019-04-05T09:15:13.683Z,21.60
2019-04-05T09:17:43.278Z,20.57
2019-04-05T09:20:13.705Z,19.97
2019-04-05T09:22:43.332Z,21.73
2019-04-05T09:25:13.034Z,22.07
2019-04-05T09:27:44.173Z,22.07
2019-04-05T09:30:14.271Z,20.50
2019-04-05T09:32:43.900Z,20.90
2019-04-05T09:35:13.929Z,20.87
2019-04-05T09:37:43.582Z,18.13
2019-04-05T09:40:13.490Z,20.67
2019-04-05T09:42:43.120Z,20.40
2019-04-05T09:45:13.157Z,21.80
2019-04-05T09:47:42.827Z,19.93
2019-04-05T09:50:12.866Z,20.80
2019-04-05T09:52:42.500Z,19.77
2019-04-05T09:55:13.009Z,21.17
2019-04-05T09:57:42.637Z,19.90
2019-04-05T10:00:16.797Z,19.27
2019-04-05T10:02:46.423Z,18.53
2019-04-05T10:05:16.336Z,18.80
2019-04-05T10:07:54.839Z,19.13
2019-04-05T10:10:17.510Z,19.80
2019-04-05T10:12:47.139Z,20.67
2019-04-05T10:15:16.883Z,21.80
2019-04-05T10:17:46.507Z,21.47
2019-04-05T10:20:16.617Z,21.33
2019-04-05T10:22:46.296Z,20.50
2019-04-05T10:25:16.076Z,20.73
2019-04-05T10:27:45.680Z,20.40
2019-04-05T10:30:16.185Z,19.20
2019-04-05T10:32:46.478Z,19.97
2019-04-05T10:35:16.436Z,21.47
2019-04-05T10:37:46.109Z,21.37
2019-04-05T10:40:16.645Z,21.33
2019-04-05T10:42:46.261Z,21.50
2019-04-05T10:45:16.661Z,21.67
2019-04-05T10:47:46.331Z,22.37
2019-04-05T10:50:16.636Z,21.13
2019-04-05T10:52:46.406Z,19.93
2019-04-05T10:55:16.136Z,19.93
2019-04-05T10:57:45.764Z,20.10
2019-04-05T11:00:17.251Z,19.67
2019-04-05T11:02:46.874Z,20.50
2019-04-05T11:05:17.614Z,20.27
2019-04-05T11:07:47.211Z,20.60
2019-04-05T11:10:16.980Z,20.63
2019-04-05T11:12:49.629Z,20.20
2019-04-05T11:15:18.321Z,20.33
2019-04-05T11:17:47.958Z,21.53
2019-04-05T11:20:21.946Z,19.50
2019-04-05T11:22:50.993Z,18.43
2019-04-05T11:25:21.231Z,19.30
2019-04-05T11:27:50.906Z,20.50
2019-04-05T11:30:33.770Z,18.80
2019-04-05T11:33:03.397Z,20.30
2019-04-05T11:35:33.133Z,21.20
2019-04-05T11:38:02.976Z,21.03
2019-04-05T11:40:33.098Z,21.07
2019-04-05T11:43:04.695Z,21.23
2019-04-05T11:45:35.260Z,22.00
2019-04-05T11:48:06.569Z,21.83
2019-04-05T11:50:36.329Z,23.33
2019-04-05T11:53:06.141Z,23.27
2019-04-05T11:55:35.769Z,22.63
2019-04-05T11:58:05.512Z,22.50
2019-04-05T12:00:54.651Z,24.33
2019-04-05T12:03:34.812Z,25.13
2019-04-05T12:06:04.517Z,24.60
2019-04-05T12:08:34.117Z,24.47
2019-04-05T12:11:03.788Z,25.00
2019-04-05T12:13:33.416Z,22.80
2019-04-05T12:16:03.703Z,23.63
2019-04-05T12:18:34.818Z,23.20
2019-04-05T12:21:05.827Z,24.57
2019-04-05T12:23:35.557Z,24.10
2019-04-05T12:26:05.321Z,24.20
2019-04-05T12:28:34.929Z,23.93
2019-04-05T12:31:04.531Z,24.67
2019-04-05T12:33:34.164Z,22.70
2019-04-05T12:36:03.762Z,23.90
2019-04-05T12:38:34.164Z,22.07
2019-04-05T12:41:05.231Z,21.30
2019-04-05T12:43:34.983Z,21.17
2019-04-05T12:46:05.263Z,22.77
2019-04-05T12:48:34.891Z,19.47
2019-04-05T12:51:05.694Z,17.50
2019-04-05T12:53:35.679Z,18.10
2019-04-05T12:56:05.966Z,16.97
2019-04-05T12:58:35.601Z,17.37
2019-04-05T13:01:08.211Z,15.97
2019-04-05T13:03:36.602Z,16.17
2019-04-05T13:06:06.268Z,15.73
2019-04-05T13:08:35.976Z,18.00
2019-04-05T13:11:05.593Z,18.17
2019-04-05T13:13:35.222Z,18.33
2019-04-05T13:16:04.991Z,17.77
2019-04-05T13:18:34.626Z,18.10
2019-04-05T13:21:14.550Z,16.60
2019-04-05T13:23:35.982Z,16.23
2019-04-05T13:26:06.248Z,14.70
2019-04-05T13:28:35.845Z,15.13
2019-04-05T13:31:05.952Z,15.90
2019-04-05T13:33:35.629Z,16.37
2019-04-05T13:36:08.201Z,15.27
2019-04-05T13:38:36.582Z,15.87
2019-04-05T13:41:06.288Z,16.87
2019-04-05T13:43:35.892Z,18.83
2019-04-05T13:46:05.641Z,19.47
2019-04-05T13:48:35.278Z,18.80
2019-04-05T13:51:07.135Z,18.53
2019-04-05T13:53:36.337Z,18.30
2019-04-05T13:56:06.208Z,20.37
2019-04-05T13:58:35.837Z,19.50
2019-04-05T14:01:05.677Z,20.40
2019-04-05T14:03:35.276Z,20.40
2019-04-05T14:06:05.049Z,20.50
2019-04-05T14:08:36.349Z,19.87
2019-04-05T14:11:06.065Z,19.20
2019-04-05T14:13:37.374Z,19.30
2019-04-05T14:16:07.097Z,20.33
2019-04-05T14:18:36.696Z,19.30
2019-04-05T14:21:06.321Z,19.73
2019-04-05T14:23:35.920Z,19.93
2019-04-05T14:26:05.778Z,18.47
2019-04-05T14:28:35.377Z,19.80
2019-04-05T14:31:05.073Z,18.03
2019-04-05T14:33:34.696Z,17.60
2019-04-05T14:36:04.367Z,17.47
2019-04-05T14:38:33.998Z,18.50
2019-04-05T14:41:03.592Z,19.73
2019-04-05T14:43:33.224Z,19.73
2019-04-05T14:46:03.020Z,19.47
2019-04-05T14:48:32.628Z,20.73
2019-04-05T14:51:02.305Z,20.47
2019-04-05T14:53:32.737Z,18.47
2019-04-05T14:56:02.425Z,19.10
2019-04-05T14:58:32.113Z,22.40
2019-04-05T15:01:01.808Z,23.90
2019-04-05T15:03:31.412Z,21.20
2019-04-05T15:06:01.106Z,23.77
2019-04-05T15:08:30.700Z,28.07
2019-04-05T15:11:00.331Z,24.47
2019-04-05T15:13:29.974Z,22.33
2019-04-05T15:15:59.580Z,25.17
2019-04-05T15:18:29.192Z,21.10
2019-04-05T15:20:58.877Z,19.50
2019-04-05T15:23:28.545Z,18.93
2019-04-05T15:25:58.183Z,21.43
2019-04-05T15:28:27.781Z,19.97
2019-04-05T15:30:57.388Z,18.93
2019-04-05T15:33:27.768Z,20.57
2019-04-05T15:36:02.229Z,18.97
2019-04-05T15:38:31.312Z,15.67
2019-04-05T15:41:00.681Z,17.30
2019-04-05T15:43:30.316Z,14.97
2019-04-05T15:45:59.917Z,12.17
2019-04-05T15:48:29.640Z,12.37
2019-04-05T15:50:59.419Z,11.60
2019-04-05T15:53:31.867Z,9.83
2019-04-05T15:56:03.912Z,11.60
2019-04-05T15:58:34.074Z,11.13
2019-04-05T16:01:04.468Z,9.77
2019-04-05T16:03:36.875Z,8.73
2019-04-05T16:06:06.182Z,8.23
2019-04-05T16:08:36.085Z,9.90
2019-04-05T16:11:05.816Z,8.63
2019-04-05T16:13:35.451Z,8.53
2019-04-05T16:16:05.287Z,7.80
2019-04-05T16:18:34.910Z,7.07
2019-04-05T16:21:04.504Z,7.23
2019-04-05T16:23:34.130Z,6.20
2019-04-05T16:26:04.034Z,5.83
2019-04-05T16:28:33.639Z,5.20
2019-04-05T16:31:03.236Z,7.57
2019-04-05T16:33:32.867Z,9.83
2019-04-05T16:36:02.637Z,7.40
2019-04-05T16:38:32.237Z,7.33
2019-04-05T16:41:01.853Z,9.93
2019-04-05T16:43:31.444Z,7.90
2019-04-05T16:46:02.846Z,8.97
2019-04-05T16:48:32.512Z,11.67
2019-04-05T16:51:02.151Z,11.90
2019-04-05T16:53:31.911Z,12.43
2019-04-05T16:56:01.632Z,12.47
2019-04-05T16:58:31.235Z,13.13
2019-04-05T17:01:00.832Z,12.83
2019-04-05T17:03:30.463Z,12.87
2019-04-05T17:06:00.081Z,12.70
2019-04-05T17:08:29.701Z,13.20
2019-04-05T17:10:59.302Z,12.40
2019-04-05T17:13:28.942Z,13.40
2019-04-05T17:15:58.572Z,13.03
2019-04-05T17:18:28.203Z,14.50
2019-04-05T17:20:57.801Z,14.40
2019-04-05T17:23:27.438Z,14.43
2019-04-05T17:25:57.034Z,13.90
2019-04-05T17:28:26.663Z,13.80
2019-04-05T17:30:56.269Z,14.37
2019-04-05T17:33:25.903Z,13.80
2019-04-05T17:35:55.500Z,14.63
2019-04-05T17:38:25.101Z,15.80
2019-04-05T17:40:54.721Z,16.60
2019-04-05T17:43:24.350Z,15.00
2019-04-05T17:45:53.978Z,14.73
2019-04-05T17:48:23.578Z,14.23
2019-04-05T17:50:53.354Z,13.60
2019-04-05T17:53:22.984Z,13.20
2019-04-05T17:55:53.089Z,12.40
2019-04-05T17:58:25.031Z,11.50
2019-04-05T18:00:55.023Z,9.80
2019-04-05T18:03:24.715Z,9.73
2019-04-05T18:05:54.339Z,8.97
2019-04-05T18:08:23.941Z,10.00
2019-04-05T18:10:53.568Z,10.73
2019-04-05T18:13:23.171Z,10.07
2019-04-05T18:15:53.269Z,10.33
2019-04-05T18:18:22.950Z,9.83
2019-04-05T18:20:52.544Z,9.27
2019-04-05T18:23:25.420Z,10.67
2019-04-05T18:25:53.577Z,10.87
2019-04-05T18:28:23.183Z,11.77
2019-04-05T18:30:52.813Z,12.00
2019-04-05T18:33:22.438Z,12.60
2019-04-05T18:35:52.043Z,12.13
2019-04-05T18:38:21.781Z,11.60
2019-04-05T18:40:51.414Z,10.10
2019-04-05T18:43:21.036Z,9.77
2019-04-05T18:45:50.640Z,10.53
2019-04-05T18:48:20.336Z,10.67
2019-04-05T18:50:49.943Z,10.23
2019-04-05T18:53:19.563Z,11.67
2019-04-05T18:55:49.193Z,12.60
2019-04-05T18:58:18.792Z,11.17
2019-04-05T19:00:48.440Z,11.17
2019-04-05T19:03:18.036Z,9.47
2019-04-05T19:05:47.657Z,9.53
2019-04-05T19:08:17.358Z,9.37
2019-04-05T19:10:47.019Z,9.73
2019-04-05T19:13:16.615Z,9.93
2019-04-05T19:15:46.408Z,11.13
2019-04-05T19:18:16.143Z,10.23
2019-04-05T19:20:45.797Z,11.67
2019-04-05T19:23:15.425Z,11.00
2019-04-05T19:25:46.600Z,10.93
2019-04-05T19:28:16.356Z,10.20
2019-04-05T19:50:55.119Z,8.43
2019-04-05T19:53:24.747Z,8.70
2019-04-05T19:55:54.363Z,8.43
2019-04-05T19:58:23.966Z,8.20
2019-04-05T20:00:53.637Z,8.03
2019-04-05T20:03:23.325Z,8.13
2019-04-05T20:05:52.920Z,7.23
2019-04-05T20:08:22.544Z,7.03
2019-04-05T20:10:52.145Z,8.73
2019-04-05T20:13:21.765Z,9.60
2019-04-05T20:15:51.359Z,9.27
2019-04-05T20:18:20.980Z,9.03
2019-04-05T20:20:50.603Z,9.33
2019-04-05T20:23:20.229Z,9.00
2019-04-05T20:25:49.827Z,8.17
2019-04-05T20:28:19.457Z,7.93
2019-04-05T20:30:49.039Z,8.60
2019-04-05T20:33:18.669Z,8.40
2019-04-05T20:35:48.259Z,9.10
2019-04-05T20:38:17.972Z,8.63
2019-04-05T20:40:47.572Z,7.73
2019-04-05T20:43:17.199Z,8.40
2019-04-05T20:45:46.798Z,8.23
2019-04-05T20:48:16.504Z,9.77
2019-04-05T20:50:46.135Z,8.80
2019-04-05T20:53:15.811Z,8.80
2019-04-05T20:55:45.408Z,8.30
2019-04-05T20:58:15.029Z,8.53
2019-04-05T21:00:44.652Z,9.20
2019-04-05T21:03:14.271Z,8.80
2019-04-05T21:05:43.896Z,8.77
2019-04-05T21:08:13.495Z,8.80
2019-04-05T21:10:43.115Z,8.33
2019-04-05T21:13:12.752Z,8.30
2019-04-05T21:15:42.427Z,7.63
2019-04-05T21:18:12.051Z,7.80
2019-04-05T21:20:41.703Z,7.63
2019-04-05T21:23:11.390Z,8.00
2019-04-05T21:25:41.002Z,7.97
2019-04-05T21:28:10.615Z,8.10
2019-04-05T21:30:40.336Z,8.63
2019-04-05T21:33:09.959Z,9.17
2019-04-05T21:35:39.556Z,7.77
2019-04-05T21:38:09.176Z,6.93
2019-04-05T21:40:38.805Z,6.73
2019-04-05T21:43:08.452Z,7.73
2019-04-05T21:45:38.091Z,7.13
2019-04-05T21:48:07.719Z,7.47
2019-04-05T21:50:37.406Z,7.47
2019-04-05T21:53:07.020Z,7.00
2019-04-05T21:55:36.691Z,7.30
2019-04-05T21:58:06.313Z,7.27
2019-04-05T22:00:40.520Z,7.93
2019-04-05T22:03:10.141Z,7.47
2019-04-05T22:05:39.840Z,7.27
2019-04-05T22:08:09.468Z,7.67
2019-04-05T22:10:39.065Z,9.13
2019-04-05T22:13:08.691Z,9.77
2019-04-05T22:15:38.283Z,9.60
2019-04-05T22:18:07.905Z,9.87
2019-04-05T22:20:37.498Z,9.57
2019-04-05T22:23:07.138Z,8.43
2019-04-05T22:25:36.900Z,8.80
2019-04-05T22:28:06.524Z,8.20
2019-04-05T22:30:36.295Z,8.20
2019-04-05T22:33:05.931Z,8.73
2019-04-05T22:35:35.639Z,8.17
2019-04-05T22:38:05.305Z,9.13
2019-04-05T22:40:34.925Z,8.40
2019-04-05T22:43:04.548Z,8.70
2019-04-05T22:45:34.139Z,8.67
2019-04-05T22:48:03.792Z,9.23
2019-04-05T22:50:33.400Z,10.70
2019-04-05T22:53:03.003Z,11.87
2019-04-05T22:55:32.724Z,11.67
2019-04-05T22:58:02.331Z,10.57
2019-04-05T23:00:31.920Z,10.07
2019-04-05T23:03:01.545Z,9.80
2019-04-05T23:05:31.167Z,9.80
2019-04-05T23:08:00.791Z,9.50
2019-04-05T23:10:30.424Z,9.77
2019-04-05T23:13:00.034Z,9.93
2019-04-05T23:15:29.628Z,8.13
2019-04-05T23:17:59.249Z,8.87
2019-04-05T23:20:28.874Z,9.07
2019-04-05T23:22:58.477Z,7.90
2019-04-05T23:25:28.072Z,7.87
2019-04-05T23:27:57.694Z,7.40
2019-04-05T23:30:28.927Z,7.37
2019-04-05T23:32:58.552Z,6.40
2019-04-05T23:35:28.146Z,6.60
2019-04-05T23:37:57.742Z,6.33
2019-04-05T23:40:27.394Z,6.80
2019-04-05T23:42:56.982Z,6.77
2019-04-05T23:45:26.597Z,6.63
2019-04-05T23:47:56.190Z,6.60
2019-04-05T23:50:25.801Z,7.13
2019-04-05T23:52:55.419Z,6.90
2019-04-05T23:55:33.090Z,6.10
2019-04-05T23:57:56.354Z,6.37
